sensor_id;sensor_type;location;lat;lon;timestamp;temperature;humidity
2190;DHT22;1101;51.056;7.262;2022-08-18T00:01:54;18.20;77.30
2190;DHT22;1101;51.056;7.262;2022-08-18T00:04:25;18.10;77.40
2190;DHT22;1101;51.056;7.262;2022-08-18T00:07:02;18.10;77.60
2190;DHT22;1101;51.056;7.262;2022-08-18T00:09:30;18.10;77.60
2190;DHT22;1101;51.056;7.262;2022-08-18T00:12:00;18.10;77.60
2190;DHT22;1101;51.056;7.262;2022-08-18T00:14:30;18.10;77.60
2190;DHT22;1101;51.056;7.262;2022-08-18T00:16:58;18.00;77.50
2190;DHT22;1101;51.056;7.262;2022-08-18T00:19:27;18.00;77.60
2190;DHT22;1101;51.056;7.262;2022-08-18T00:22:15;18.00;77.60
2190;DHT22;1101;51.056;7.262;2022-08-18T00:24:45;18.00;77.70
2190;DHT22;1101;51.056;7.262;2022-08-18T00:27:17;17.90;77.60
2190;DHT22;1101;51.056;7.262;2022-08-18T00:29:50;17.90;77.70
2190;DHT22;1101;51.056;7.262;2022-08-18T00:32:21;17.80;77.50
2190;DHT22;1101;51.056;7.262;2022-08-18T00:34:49;17.80;77.70
2190;DHT22;1101;51.056;7.262;2022-08-18T00:37:17;17.80;77.60
2190;DHT22;1101;51.056;7.262;2022-08-18T00:39:45;17.70;77.60
2190;DHT22;1101;51.056;7.262;2022-08-18T00:42:16;17.70;77.60
2190;DHT22;1101;51.056;7.262;2022-08-18T00:44:59;17.60;77.60
2190;DHT22;1101;51.056;7.262;2022-08-18T00:47:27;17.60;77.90
2190;DHT22;1101;51.056;7.262;2022-08-18T00:50:10;17.50;77.90
2190;DHT22;1101;51.056;7.262;2022-08-18T00:52:48;17.50;78.00
2190;DHT22;1101;51.056;7.262;2022-08-18T00:55:17;17.50;78.10
2190;DHT22;1101;51.056;7.262;2022-08-18T00:57:47;17.50;77.90
2190;DHT22;1101;51.056;7.262;2022-08-18T01:00:19;17.50;77.80
2190;DHT22;1101;51.056;7.262;2022-08-18T01:02:52;17.50;77.80
2190;DHT22;1101;51.056;7.262;2022-08-18T01:05:25;17.40;77.80
2190;DHT22;1101;51.056;7.262;2022-08-18T01:07:56;17.40;77.80
2190;DHT22;1101;51.056;7.262;2022-08-18T01:10:24;17.30;77.80
2190;DHT22;1101;51.056;7.262;2022-08-18T01:12:56;17.30;77.90
2190;DHT22;1101;51.056;7.262;2022-08-18T01:15:27;17.20;77.90
2190;DHT22;1101;51.056;7.262;2022-08-18T01:17:57;17.20;78.10
2190;DHT22;1101;51.056;7.262;2022-08-18T01:20:48;17.20;78.00
2190;DHT22;1101;51.056;7.262;2022-08-18T01:23:37;17.20;78.00
2190;DHT22;1101;51.056;7.262;2022-08-18T01:26:06;17.20;78.00
2190;DHT22;1101;51.056;7.262;2022-08-18T01:28:38;17.20;78.00
2190;DHT22;1101;51.056;7.262;2022-08-18T01:31:08;17.10;78.10
2190;DHT22;1101;51.056;7.262;2022-08-18T01:33:38;17.10;78.20
2190;DHT22;1101;51.056;7.262;2022-08-18T01:36:11;17.10;78.20
2190;DHT22;1101;51.056;7.262;2022-08-18T01:38:45;17.10;78.30
2190;DHT22;1101;51.056;7.262;2022-08-18T01:41:13;17.10;78.40
2190;DHT22;1101;51.056;7.262;2022-08-18T01:43:54;17.00;78.30
2190;DHT22;1101;51.056;7.262;2022-08-18T01:46:22;17.00;78.50
2190;DHT22;1101;51.056;7.262;2022-08-18T01:48:50;17.00;78.70
2190;DHT22;1101;51.056;7.262;2022-08-18T01:51:19;16.90;78.60
2190;DHT22;1101;51.056;7.262;2022-08-18T01:54:08;16.90;78.80
2190;DHT22;1101;51.056;7.262;2022-08-18T01:56:36;16.90;78.90
2190;DHT22;1101;51.056;7.262;2022-08-18T01:59:04;16.90;79.10
2190;DHT22;1101;51.056;7.262;2022-08-18T02:01:37;16.80;78.90
2190;DHT22;1101;51.056;7.262;2022-08-18T02:04:15;16.80;79.00
2190;DHT22;1101;51.056;7.262;2022-08-18T02:07:06;16.80;79.00
2190;DHT22;1101;51.056;7.262;2022-08-18T02:09:37;16.80;79.00
2190;DHT22;1101;51.056;7.262;2022-08-18T02:12:06;16.80;78.90
2190;DHT22;1101;51.056;7.262;2022-08-18T02:14:34;16.70;78.70
2190;DHT22;1101;51.056;7.262;2022-08-18T02:17:04;16.70;78.80
2190;DHT22;1101;51.056;7.262;2022-08-18T02:19:32;16.70;78.70
2190;DHT22;1101;51.056;7.262;2022-08-18T02:22:00;16.70;78.80
2190;DHT22;1101;51.056;7.262;2022-08-18T02:24:28;16.70;78.80
2190;DHT22;1101;51.056;7.262;2022-08-18T02:26:58;16.60;78.70
2190;DHT22;1101;51.056;7.262;2022-08-18T02:29:26;16.60;78.80
2190;DHT22;1101;51.056;7.262;2022-08-18T02:31:54;16.60;79.00
2190;DHT22;1101;51.056;7.262;2022-08-18T02:34:22;16.60;79.00
2190;DHT22;1101;51.056;7.262;2022-08-18T02:36:51;16.60;79.00
2190;DHT22;1101;51.056;7.262;2022-08-18T02:39:19;16.60;79.10
2190;DHT22;1101;51.056;7.262;2022-08-18T02:41:47;16.60;79.10
2190;DHT22;1101;51.056;7.262;2022-08-18T02:44:16;16.60;79.10
2190;DHT22;1101;51.056;7.262;2022-08-18T02:46:44;16.60;79.00
2190;DHT22;1101;51.056;7.262;2022-08-18T02:49:12;16.60;79.00
2190;DHT22;1101;51.056;7.262;2022-08-18T02:51:43;16.60;79.10
2190;DHT22;1101;51.056;7.262;2022-08-18T02:54:11;16.50;79.20
2190;DHT22;1101;51.056;7.262;2022-08-18T02:56:39;16.60;79.40
2190;DHT22;1101;51.056;7.262;2022-08-18T02:59:11;16.60;79.50
2190;DHT22;1101;51.056;7.262;2022-08-18T03:01:42;16.60;79.60
2190;DHT22;1101;51.056;7.262;2022-08-18T03:04:38;16.60;79.40
2190;DHT22;1101;51.056;7.262;2022-08-18T03:07:06;16.60;79.40
2190;DHT22;1101;51.056;7.262;2022-08-18T03:09:35;16.60;79.30
2190;DHT22;1101;51.056;7.262;2022-08-18T03:12:04;16.60;79.40
2190;DHT22;1101;51.056;7.262;2022-08-18T03:14:33;16.50;79.40
2190;DHT22;1101;51.056;7.262;2022-08-18T03:17:05;16.50;79.40
2190;DHT22;1101;51.056;7.262;2022-08-18T03:19:34;16.50;79.50
2190;DHT22;1101;51.056;7.262;2022-08-18T03:22:02;16.50;79.60
2190;DHT22;1101;51.056;7.262;2022-08-18T03:24:51;16.50;79.50
2190;DHT22;1101;51.056;7.262;2022-08-18T03:27:19;16.40;79.70
2190;DHT22;1101;51.056;7.262;2022-08-18T03:29:47;16.40;79.70
2190;DHT22;1101;51.056;7.262;2022-08-18T03:32:17;16.40;79.90
2190;DHT22;1101;51.056;7.262;2022-08-18T03:35:12;16.40;79.90
2190;DHT22;1101;51.056;7.262;2022-08-18T03:37:41;16.40;79.90
2190;DHT22;1101;51.056;7.262;2022-08-18T03:40:10;16.40;79.70
2190;DHT22;1101;51.056;7.262;2022-08-18T03:42:38;16.40;79.80
2190;DHT22;1101;51.056;7.262;2022-08-18T03:45:07;16.30;79.90
2190;DHT22;1101;51.056;7.262;2022-08-18T03:47:44;16.30;79.70
2190;DHT22;1101;51.056;7.262;2022-08-18T03:50:12;16.30;79.70
2190;DHT22;1101;51.056;7.262;2022-08-18T03:52:40;16.30;79.80
2190;DHT22;1101;51.056;7.262;2022-08-18T03:55:08;16.30;79.70
2190;DHT22;1101;51.056;7.262;2022-08-18T03:57:36;16.30;79.70
2190;DHT22;1101;51.056;7.262;2022-08-18T04:00:06;16.30;79.80
2190;DHT22;1101;51.056;7.262;2022-08-18T04:02:35;16.30;79.80
2190;DHT22;1101;51.056;7.262;2022-08-18T04:05:05;16.30;80.00
2190;DHT22;1101;51.056;7.262;2022-08-18T04:07:35;16.30;80.00
2190;DHT22;1101;51.056;7.262;2022-08-18T04:10:04;16.40;79.90
2190;DHT22;1101;51.056;7.262;2022-08-18T04:12:44;16.40;79.90
2190;DHT22;1101;51.056;7.262;2022-08-18T04:15:12;16.40;79.90
2190;DHT22;1101;51.056;7.262;2022-08-18T04:17:40;16.40;80.00
2190;DHT22;1101;51.056;7.262;2022-08-18T04:20:29;16.40;80.00
2190;DHT22;1101;51.056;7.262;2022-08-18T04:22:58;16.40;79.90
2190;DHT22;1101;51.056;7.262;2022-08-18T04:25:26;16.40;79.80
2190;DHT22;1101;51.056;7.262;2022-08-18T04:28:00;16.40;79.80
2190;DHT22;1101;51.056;7.262;2022-08-18T04:30:29;16.40;79.90
2190;DHT22;1101;51.056;7.262;2022-08-18T04:32:57;16.40;79.90
2190;DHT22;1101;51.056;7.262;2022-08-18T04:35:25;16.40;80.00
2190;DHT22;1101;51.056;7.262;2022-08-18T04:37:56;16.40;80.10
2190;DHT22;1101;51.056;7.262;2022-08-18T04:40:23;16.40;80.20
2190;DHT22;1101;51.056;7.262;2022-08-18T04:42:52;16.40;80.30
2190;DHT22;1101;51.056;7.262;2022-08-18T04:45:20;16.40;80.50
2190;DHT22;1101;51.056;7.262;2022-08-18T04:47:48;16.40;80.50
2190;DHT22;1101;51.056;7.262;2022-08-18T04:50:16;16.40;80.70
2190;DHT22;1101;51.056;7.262;2022-08-18T04:52:44;16.40;80.80
2190;DHT22;1101;51.056;7.262;2022-08-18T04:55:33;16.40;81.00
2190;DHT22;1101;51.056;7.262;2022-08-18T04:58:00;16.40;81.10
2190;DHT22;1101;51.056;7.262;2022-08-18T05:00:29;16.40;81.10
2190;DHT22;1101;51.056;7.262;2022-08-18T05:02:57;16.50;81.30
2190;DHT22;1101;51.056;7.262;2022-08-18T05:05:25;16.50;81.30
2190;DHT22;1101;51.056;7.262;2022-08-18T05:07:53;16.50;81.40
2190;DHT22;1101;51.056;7.262;2022-08-18T05:10:23;16.60;81.50
2190;DHT22;1101;51.056;7.262;2022-08-18T05:12:52;16.60;81.50
2190;DHT22;1101;51.056;7.262;2022-08-18T05:15:21;16.60;81.40
2190;DHT22;1101;51.056;7.262;2022-08-18T05:17:48;16.60;81.30
2190;DHT22;1101;51.056;7.262;2022-08-18T05:20:17;16.60;81.30
2190;DHT22;1101;51.056;7.262;2022-08-18T05:22:46;16.60;81.40
2190;DHT22;1101;51.056;7.262;2022-08-18T05:25:14;16.70;81.50
2190;DHT22;1101;51.056;7.262;2022-08-18T05:27:43;16.70;81.40
2190;DHT22;1101;51.056;7.262;2022-08-18T05:30:12;16.70;81.50
2190;DHT22;1101;51.056;7.262;2022-08-18T05:32:43;16.70;81.50
2190;DHT22;1101;51.056;7.262;2022-08-18T05:35:19;16.80;81.70
2190;DHT22;1101;51.056;7.262;2022-08-18T05:38:08;16.80;81.70
2190;DHT22;1101;51.056;7.262;2022-08-18T05:40:42;16.90;81.90
2190;DHT22;1101;51.056;7.262;2022-08-18T05:43:12;16.90;81.80
2190;DHT22;1101;51.056;7.262;2022-08-18T05:45:42;16.90;81.80
2190;DHT22;1101;51.056;7.262;2022-08-18T05:48:19;17.00;82.00
2190;DHT22;1101;51.056;7.262;2022-08-18T05:50:47;17.00;81.90
2190;DHT22;1101;51.056;7.262;2022-08-18T05:53:16;17.00;81.90
2190;DHT22;1101;51.056;7.262;2022-08-18T05:55:55;17.00;81.90
2190;DHT22;1101;51.056;7.262;2022-08-18T05:58:49;17.10;82.30
2190;DHT22;1101;51.056;7.262;2022-08-18T06:01:22;17.10;82.40
2190;DHT22;1101;51.056;7.262;2022-08-18T06:03:55;17.10;82.40
2190;DHT22;1101;51.056;7.262;2022-08-18T06:06:27;17.20;82.60
2190;DHT22;1101;51.056;7.262;2022-08-18T06:09:00;17.20;82.50
2190;DHT22;1101;51.056;7.262;2022-08-18T06:11:29;17.20;82.50
2190;DHT22;1101;51.056;7.262;2022-08-18T06:13:58;17.30;82.70
2190;DHT22;1101;51.056;7.262;2022-08-18T06:16:37;17.30;82.80
2190;DHT22;1101;51.056;7.262;2022-08-18T06:19:24;17.40;83.00
2190;DHT22;1101;51.056;7.262;2022-08-18T06:21:59;17.40;83.10
2190;DHT22;1101;51.056;7.262;2022-08-18T06:24:36;17.50;83.20
2190;DHT22;1101;51.056;7.262;2022-08-18T06:27:09;17.50;83.30
2190;DHT22;1101;51.056;7.262;2022-08-18T06:29:53;17.50;83.30
2190;DHT22;1101;51.056;7.262;2022-08-18T06:32:44;17.60;83.40
2190;DHT22;1101;51.056;7.262;2022-08-18T06:35:26;17.60;83.40
2190;DHT22;1101;51.056;7.262;2022-08-18T06:38:16;17.60;83.40
2190;DHT22;1101;51.056;7.262;2022-08-18T06:41:14;17.60;83.40
2190;DHT22;1101;51.056;7.262;2022-08-18T06:44:05;17.70;83.50
2190;DHT22;1101;51.056;7.262;2022-08-18T06:46:40;17.70;83.60
2190;DHT22;1101;51.056;7.262;2022-08-18T06:49:13;17.70;83.60
2190;DHT22;1101;51.056;7.262;2022-08-18T06:51:43;17.70;83.70
2190;DHT22;1101;51.056;7.262;2022-08-18T06:54:26;17.70;83.70
2190;DHT22;1101;51.056;7.262;2022-08-18T06:56:56;17.80;83.90
2190;DHT22;1101;51.056;7.262;2022-08-18T06:59:26;17.80;84.00
2190;DHT22;1101;51.056;7.262;2022-08-18T07:01:58;17.80;84.00
2190;DHT22;1101;51.056;7.262;2022-08-18T07:04:36;17.80;84.00
2190;DHT22;1101;51.056;7.262;2022-08-18T07:07:13;17.80;84.00
2190;DHT22;1101;51.056;7.262;2022-08-18T07:09:41;17.80;84.70
2190;DHT22;1101;51.056;7.262;2022-08-18T07:12:09;17.90;84.20
2190;DHT22;1101;51.056;7.262;2022-08-18T07:14:45;17.90;84.20
2190;DHT22;1101;51.056;7.262;2022-08-18T07:17:19;18.00;84.40
2190;DHT22;1101;51.056;7.262;2022-08-18T07:20:05;18.00;84.30
2190;DHT22;1101;51.056;7.262;2022-08-18T07:22:53;18.00;84.40
2190;DHT22;1101;51.056;7.262;2022-08-18T07:25:24;18.00;84.40
2190;DHT22;1101;51.056;7.262;2022-08-18T07:27:52;18.10;84.50
2190;DHT22;1101;51.056;7.262;2022-08-18T07:30:28;18.10;84.50
2190;DHT22;1101;51.056;7.262;2022-08-18T07:33:01;18.10;84.60
2190;DHT22;1101;51.056;7.262;2022-08-18T07:35:36;18.10;84.30
2190;DHT22;1101;51.056;7.262;2022-08-18T07:38:09;18.10;84.30
2190;DHT22;1101;51.056;7.262;2022-08-18T07:41:05;18.20;84.50
2190;DHT22;1101;51.056;7.262;2022-08-18T07:43:39;18.20;84.30
2190;DHT22;1101;51.056;7.262;2022-08-18T07:46:12;18.20;84.30
2190;DHT22;1101;51.056;7.262;2022-08-18T07:48:42;18.20;84.30
2190;DHT22;1101;51.056;7.262;2022-08-18T07:51:19;18.30;84.40
2190;DHT22;1101;51.056;7.262;2022-08-18T07:53:54;18.30;84.40
2190;DHT22;1101;51.056;7.262;2022-08-18T07:56:33;18.30;84.60
2190;DHT22;1101;51.056;7.262;2022-08-18T07:59:10;18.30;84.60
2190;DHT22;1101;51.056;7.262;2022-08-18T08:01:45;18.40;84.60
2190;DHT22;1101;51.056;7.262;2022-08-18T08:04:21;18.40;84.50
2190;DHT22;1101;51.056;7.262;2022-08-18T08:06:59;18.50;85.20
2190;DHT22;1101;51.056;7.262;2022-08-18T08:09:55;18.50;84.40
2190;DHT22;1101;51.056;7.262;2022-08-18T08:12:30;18.60;84.30
2190;DHT22;1101;51.056;7.262;2022-08-18T08:15:08;18.70;84.10
2190;DHT22;1101;51.056;7.262;2022-08-18T08:17:43;18.80;84.40
2190;DHT22;1101;51.056;7.262;2022-08-18T08:20:21;18.80;84.20
2190;DHT22;1101;51.056;7.262;2022-08-18T08:23:13;18.90;84.20
2190;DHT22;1101;51.056;7.262;2022-08-18T08:25:53;18.90;83.90
2190;DHT22;1101;51.056;7.262;2022-08-18T08:28:32;19.00;84.00
2190;DHT22;1101;51.056;7.262;2022-08-18T08:31:08;19.10;83.90
2190;DHT22;1101;51.056;7.262;2022-08-18T08:34:02;19.10;84.50
2190;DHT22;1101;51.056;7.262;2022-08-18T08:36:34;19.10;84.00
2190;DHT22;1101;51.056;7.262;2022-08-18T08:39:09;19.20;84.20
2190;DHT22;1101;51.056;7.262;2022-08-18T08:41:42;19.20;84.20
2190;DHT22;1101;51.056;7.262;2022-08-18T08:44:17;19.20;84.20
2190;DHT22;1101;51.056;7.262;2022-08-18T08:46:50;19.20;84.20
2190;DHT22;1101;51.056;7.262;2022-08-18T08:49:36;19.20;84.20
2190;DHT22;1101;51.056;7.262;2022-08-18T08:52:10;19.20;84.30
2190;DHT22;1101;51.056;7.262;2022-08-18T08:54:49;19.20;84.20
2190;DHT22;1101;51.056;7.262;2022-08-18T08:57:21;19.30;84.20
2190;DHT22;1101;51.056;7.262;2022-08-18T08:59:52;19.30;84.20
2190;DHT22;1101;51.056;7.262;2022-08-18T09:02:30;19.30;84.10
2190;DHT22;1101;51.056;7.262;2022-08-18T09:05:17;19.40;84.20
2190;DHT22;1101;51.056;7.262;2022-08-18T09:08:28;19.40;84.30
2190;DHT22;1101;51.056;7.262;2022-08-18T09:11:24;19.40;84.20
2190;DHT22;1101;51.056;7.262;2022-08-18T09:17:26;19.40;84.30
2190;DHT22;1101;51.056;7.262;2022-08-18T09:20:18;19.40;84.20
2190;DHT22;1101;51.056;7.262;2022-08-18T09:22:50;19.40;84.40
2190;DHT22;1101;51.056;7.262;2022-08-18T09:25:31;19.40;84.30
2190;DHT22;1101;51.056;7.262;2022-08-18T09:28:11;19.40;84.50
2190;DHT22;1101;51.056;7.262;2022-08-18T09:30:46;19.40;84.40
2190;DHT22;1101;51.056;7.262;2022-08-18T09:33:25;19.50;84.40
2190;DHT22;1101;51.056;7.262;2022-08-18T09:36:16;19.50;84.20
2190;DHT22;1101;51.056;7.262;2022-08-18T09:38:55;19.60;84.00
2190;DHT22;1101;51.056;7.262;2022-08-18T09:41:52;19.70;83.80
2190;DHT22;1101;51.056;7.262;2022-08-18T09:48:03;19.90;83.60
2190;DHT22;1101;51.056;7.262;2022-08-18T09:51:34;20.00;83.80
2190;DHT22;1101;51.056;7.262;2022-08-18T09:54:14;20.00;83.20
2190;DHT22;1101;51.056;7.262;2022-08-18T09:57:18;20.10;83.10
2190;DHT22;1101;51.056;7.262;2022-08-18T10:00:16;20.30;83.10
2190;DHT22;1101;51.056;7.262;2022-08-18T10:03:21;20.30;83.00
2190;DHT22;1101;51.056;7.262;2022-08-18T10:12:21;20.50;82.80
2190;DHT22;1101;51.056;7.262;2022-08-18T10:15:09;20.60;82.80
2190;DHT22;1101;51.056;7.262;2022-08-18T10:18:12;20.60;82.70
2190;DHT22;1101;51.056;7.262;2022-08-18T10:20:57;20.70;82.70
2190;DHT22;1101;51.056;7.262;2022-08-18T10:23:45;20.80;82.70
2190;DHT22;1101;51.056;7.262;2022-08-18T10:27:13;20.90;82.60
2190;DHT22;1101;51.056;7.262;2022-08-18T10:29:59;21.00;82.50
2190;DHT22;1101;51.056;7.262;2022-08-18T10:32:40;21.10;82.30
2190;DHT22;1101;51.056;7.262;2022-08-18T10:35:56;21.30;82.30
2190;DHT22;1101;51.056;7.262;2022-08-18T10:38:42;21.40;82.00
2190;DHT22;1101;51.056;7.262;2022-08-18T10:41:21;21.60;82.70
2190;DHT22;1101;51.056;7.262;2022-08-18T10:43:51;21.70;81.90
2190;DHT22;1101;51.056;7.262;2022-08-18T10:46:25;21.70;81.70
2190;DHT22;1101;51.056;7.262;2022-08-18T10:49:06;21.70;81.50
2190;DHT22;1101;51.056;7.262;2022-08-18T10:51:57;21.80;81.60
2190;DHT22;1101;51.056;7.262;2022-08-18T10:54:37;21.90;81.60
2190;DHT22;1101;51.056;7.262;2022-08-18T10:57:28;21.90;81.30
2190;DHT22;1101;51.056;7.262;2022-08-18T11:00:03;22.00;81.30
2190;DHT22;1101;51.056;7.262;2022-08-18T11:02:52;22.10;81.20
2190;DHT22;1101;51.056;7.262;2022-08-18T11:05:40;22.20;81.00
2190;DHT22;1101;51.056;7.262;2022-08-18T11:08:13;22.30;80.90
2190;DHT22;1101;51.056;7.262;2022-08-18T11:10:45;22.30;80.70
2190;DHT22;1101;51.056;7.262;2022-08-18T11:13:44;22.40;80.50
2190;DHT22;1101;51.056;7.262;2022-08-18T11:16:27;22.40;80.50
2190;DHT22;1101;51.056;7.262;2022-08-18T11:19:06;22.50;80.50
2190;DHT22;1101;51.056;7.262;2022-08-18T11:21:40;22.60;80.40
2190;DHT22;1101;51.056;7.262;2022-08-18T11:24:14;22.60;80.40
2190;DHT22;1101;51.056;7.262;2022-08-18T11:26:44;22.60;80.30
2190;DHT22;1101;51.056;7.262;2022-08-18T11:29:28;22.60;80.10
2190;DHT22;1101;51.056;7.262;2022-08-18T11:32:06;22.70;80.00
2190;DHT22;1101;51.056;7.262;2022-08-18T11:35:01;22.70;80.00
2190;DHT22;1101;51.056;7.262;2022-08-18T11:37:35;22.80;79.90
2190;DHT22;1101;51.056;7.262;2022-08-18T11:40:27;22.80;79.70
2190;DHT22;1101;51.056;7.262;2022-08-18T11:43:19;22.90;79.70
2190;DHT22;1101;51.056;7.262;2022-08-18T11:45:52;23.00;79.60
2190;DHT22;1101;51.056;7.262;2022-08-18T11:48:32;23.00;79.50
2190;DHT22;1101;51.056;7.262;2022-08-18T11:51:20;23.10;79.40
2190;DHT22;1101;51.056;7.262;2022-08-18T11:53:55;23.10;80.00
2190;DHT22;1101;51.056;7.262;2022-08-18T11:56:29;23.20;79.30
2190;DHT22;1101;51.056;7.262;2022-08-18T11:59:05;23.20;79.20
2190;DHT22;1101;51.056;7.262;2022-08-18T12:01:37;23.20;79.10
2190;DHT22;1101;51.056;7.262;2022-08-18T12:04:21;23.20;79.10
2190;DHT22;1101;51.056;7.262;2022-08-18T12:06:59;23.30;79.10
2190;DHT22;1101;51.056;7.262;2022-08-18T12:09:36;23.40;79.10
2190;DHT22;1101;51.056;7.262;2022-08-18T12:12:28;23.60;79.10
2190;DHT22;1101;51.056;7.262;2022-08-18T12:15:01;23.90;78.70
2190;DHT22;1101;51.056;7.262;2022-08-18T12:17:44;24.00;78.40
2190;DHT22;1101;51.056;7.262;2022-08-18T12:20:18;24.20;78.30
2190;DHT22;1101;51.056;7.262;2022-08-18T12:22:46;24.30;78.00
2190;DHT22;1101;51.056;7.262;2022-08-18T12:25:17;24.40;77.90
2190;DHT22;1101;51.056;7.262;2022-08-18T12:27:52;24.40;77.70
2190;DHT22;1101;51.056;7.262;2022-08-18T12:30:20;24.40;77.60
2190;DHT22;1101;51.056;7.262;2022-08-18T12:32:49;24.30;77.60
2190;DHT22;1101;51.056;7.262;2022-08-18T12:35:36;24.30;77.60
2190;DHT22;1101;51.056;7.262;2022-08-18T12:38:04;24.30;77.70
2190;DHT22;1101;51.056;7.262;2022-08-18T12:40:40;24.40;77.60
2190;DHT22;1101;51.056;7.262;2022-08-18T12:43:10;24.40;77.50
2190;DHT22;1101;51.056;7.262;2022-08-18T12:45:39;24.50;77.50
2190;DHT22;1101;51.056;7.262;2022-08-18T12:48:07;24.60;77.30
2190;DHT22;1101;51.056;7.262;2022-08-18T12:50:37;24.60;77.10
2190;DHT22;1101;51.056;7.262;2022-08-18T12:53:20;24.60;76.60
2190;DHT22;1101;51.056;7.262;2022-08-18T12:56:04;24.60;76.50
2190;DHT22;1101;51.056;7.262;2022-08-18T12:58:35;24.70;76.70
2190;DHT22;1101;51.056;7.262;2022-08-18T13:01:06;24.70;76.50
2190;DHT22;1101;51.056;7.262;2022-08-18T13:03:34;24.80;76.40
2190;DHT22;1101;51.056;7.262;2022-08-18T13:06:03;24.90;75.80
2190;DHT22;1101;51.056;7.262;2022-08-18T13:08:33;24.80;76.00
2190;DHT22;1101;51.056;7.262;2022-08-18T13:11:16;24.90;76.10
2190;DHT22;1101;51.056;7.262;2022-08-18T13:13:52;24.90;76.10
2190;DHT22;1101;51.056;7.262;2022-08-18T13:16:23;25.10;75.70
2190;DHT22;1101;51.056;7.262;2022-08-18T13:19:12;25.20;75.80
2190;DHT22;1101;51.056;7.262;2022-08-18T13:21:40;25.20;75.70
2190;DHT22;1101;51.056;7.262;2022-08-18T13:24:09;25.30;75.70
2190;DHT22;1101;51.056;7.262;2022-08-18T13:26:41;25.40;75.50
2190;DHT22;1101;51.056;7.262;2022-08-18T13:29:13;25.50;75.30
2190;DHT22;1101;51.056;7.262;2022-08-18T13:31:44;25.60;75.10
2190;DHT22;1101;51.056;7.262;2022-08-18T13:34:23;25.50;75.10
2190;DHT22;1101;51.056;7.262;2022-08-18T13:36:55;25.60;75.30
2190;DHT22;1101;51.056;7.262;2022-08-18T13:39:24;25.70;75.20
2190;DHT22;1101;51.056;7.262;2022-08-18T13:42:00;25.70;74.40
2190;DHT22;1101;51.056;7.262;2022-08-18T13:44:51;25.70;74.80
2190;DHT22;1101;51.056;7.262;2022-08-18T13:47:22;25.60;74.50
2190;DHT22;1101;51.056;7.262;2022-08-18T13:49:54;25.60;74.60
2190;DHT22;1101;51.056;7.262;2022-08-18T13:52:25;25.50;74.40
2190;DHT22;1101;51.056;7.262;2022-08-18T13:55:06;25.40;74.50
2190;DHT22;1101;51.056;7.262;2022-08-18T13:57:39;25.40;74.70
2190;DHT22;1101;51.056;7.262;2022-08-18T14:00:20;25.30;74.80
2190;DHT22;1101;51.056;7.262;2022-08-18T14:02:56;25.30;75.00
2190;DHT22;1101;51.056;7.262;2022-08-18T14:05:29;25.30;75.00
2190;DHT22;1101;51.056;7.262;2022-08-18T14:08:16;25.30;74.90
2190;DHT22;1101;51.056;7.262;2022-08-18T14:10:46;25.40;74.70
2190;DHT22;1101;51.056;7.262;2022-08-18T14:13:16;25.30;74.50
2190;DHT22;1101;51.056;7.262;2022-08-18T14:15:53;25.30;74.80
2190;DHT22;1101;51.056;7.262;2022-08-18T14:18:22;25.30;74.60
2190;DHT22;1101;51.056;7.262;2022-08-18T14:20:56;25.20;74.90
2190;DHT22;1101;51.056;7.262;2022-08-18T14:23:42;25.20;74.90
2190;DHT22;1101;51.056;7.262;2022-08-18T14:26:27;25.30;74.80
2190;DHT22;1101;51.056;7.262;2022-08-18T14:29:17;25.30;74.80
2190;DHT22;1101;51.056;7.262;2022-08-18T14:32:06;25.30;74.80
2190;DHT22;1101;51.056;7.262;2022-08-18T14:34:47;25.30;74.50
2190;DHT22;1101;51.056;7.262;2022-08-18T14:37:16;25.20;74.60
2190;DHT22;1101;51.056;7.262;2022-08-18T14:39:44;25.20;74.70
2190;DHT22;1101;51.056;7.262;2022-08-18T14:42:16;25.20;74.80
2190;DHT22;1101;51.056;7.262;2022-08-18T14:45:07;25.10;74.70
2190;DHT22;1101;51.056;7.262;2022-08-18T14:47:55;25.20;74.80
2190;DHT22;1101;51.056;7.262;2022-08-18T14:50:23;25.20;74.70
2190;DHT22;1101;51.056;7.262;2022-08-18T14:52:52;25.20;74.70
2190;DHT22;1101;51.056;7.262;2022-08-18T14:55:20;25.20;74.70
2190;DHT22;1101;51.056;7.262;2022-08-18T14:57:48;25.20;74.60
2190;DHT22;1101;51.056;7.262;2022-08-18T15:00:17;25.20;74.60
2190;DHT22;1101;51.056;7.262;2022-08-18T15:02:48;25.20;74.40
2190;DHT22;1101;51.056;7.262;2022-08-18T15:05:18;25.20;74.40
2190;DHT22;1101;51.056;7.262;2022-08-18T15:07:51;25.20;74.40
2190;DHT22;1101;51.056;7.262;2022-08-18T15:10:19;25.20;74.60
2190;DHT22;1101;51.056;7.262;2022-08-18T15:12:53;25.20;74.60
2190;DHT22;1101;51.056;7.262;2022-08-18T15:15:23;25.20;74.40
2190;DHT22;1101;51.056;7.262;2022-08-18T15:17:51;25.20;74.30
2190;DHT22;1101;51.056;7.262;2022-08-18T15:20:23;25.30;74.50
2190;DHT22;1101;51.056;7.262;2022-08-18T15:22:58;25.40;74.40
2190;DHT22;1101;51.056;7.262;2022-08-18T15:25:50;25.40;74.30
2190;DHT22;1101;51.056;7.262;2022-08-18T15:28:21;25.50;74.10
2190;DHT22;1101;51.056;7.262;2022-08-18T15:30:51;25.50;74.20
2190;DHT22;1101;51.056;7.262;2022-08-18T15:33:39;25.60;74.10
2190;DHT22;1101;51.056;7.262;2022-08-18T15:36:09;25.60;74.00
2190;DHT22;1101;51.056;7.262;2022-08-18T15:38:42;25.60;73.90
2190;DHT22;1101;51.056;7.262;2022-08-18T15:41:27;25.60;73.80
2190;DHT22;1101;51.056;7.262;2022-08-18T15:43:56;25.50;73.80
2190;DHT22;1101;51.056;7.262;2022-08-18T15:46:24;25.50;73.80
2190;DHT22;1101;51.056;7.262;2022-08-18T15:48:53;25.40;73.80
2190;DHT22;1101;51.056;7.262;2022-08-18T15:51:22;25.40;73.90
2190;DHT22;1101;51.056;7.262;2022-08-18T15:53:50;25.40;73.80
2190;DHT22;1101;51.056;7.262;2022-08-18T15:56:25;25.30;73.80
2190;DHT22;1101;51.056;7.262;2022-08-18T15:58:54;25.30;73.90
2190;DHT22;1101;51.056;7.262;2022-08-18T16:01:26;25.20;73.90
2190;DHT22;1101;51.056;7.262;2022-08-18T16:03:58;25.20;73.90
2190;DHT22;1101;51.056;7.262;2022-08-18T16:06:31;25.20;74.00
2190;DHT22;1101;51.056;7.262;2022-08-18T16:09:02;25.20;73.90
2190;DHT22;1101;51.056;7.262;2022-08-18T16:11:33;25.20;73.80
2190;DHT22;1101;51.056;7.262;2022-08-18T16:14:02;25.20;73.80
2190;DHT22;1101;51.056;7.262;2022-08-18T16:16:30;25.20;73.80
2190;DHT22;1101;51.056;7.262;2022-08-18T16:19:03;25.20;73.90
2190;DHT22;1101;51.056;7.262;2022-08-18T16:21:33;25.20;74.00
2190;DHT22;1101;51.056;7.262;2022-08-18T16:24:07;25.20;74.10
2190;DHT22;1101;51.056;7.262;2022-08-18T16:26:40;25.10;73.90
2190;DHT22;1101;51.056;7.262;2022-08-18T16:29:07;25.10;73.80
2190;DHT22;1101;51.056;7.262;2022-08-18T16:31:36;25.10;73.90
2190;DHT22;1101;51.056;7.262;2022-08-18T16:34:07;25.00;73.80
2190;DHT22;1101;51.056;7.262;2022-08-18T16:36:36;24.90;73.70
2190;DHT22;1101;51.056;7.262;2022-08-18T16:39:04;24.90;73.80
2190;DHT22;1101;51.056;7.262;2022-08-18T16:41:32;24.90;73.90
2190;DHT22;1101;51.056;7.262;2022-08-18T16:44:00;24.80;73.80
2190;DHT22;1101;51.056;7.262;2022-08-18T16:46:30;24.80;73.90
2190;DHT22;1101;51.056;7.262;2022-08-18T16:48:58;24.80;73.80
2190;DHT22;1101;51.056;7.262;2022-08-18T16:51:27;24.70;73.70
2190;DHT22;1101;51.056;7.262;2022-08-18T16:53:56;24.70;73.90
2190;DHT22;1101;51.056;7.262;2022-08-18T16:56:26;24.70;73.90
2190;DHT22;1101;51.056;7.262;2022-08-18T16:58:55;24.60;74.00
2190;DHT22;1101;51.056;7.262;2022-08-18T17:01:41;24.70;74.10
2190;DHT22;1101;51.056;7.262;2022-08-18T17:04:28;24.60;74.10
2190;DHT22;1101;51.056;7.262;2022-08-18T17:06:59;24.60;74.10
2190;DHT22;1101;51.056;7.262;2022-08-18T17:09:30;24.50;74.00